createdAt,value
2023-04-28T00:01:42.014Z,5.70
2023-04-28T00:04:09.097Z,5.62
2023-04-28T00:06:37.234Z,5.54
2023-04-28T00:09:04.215Z,5.45
2023-04-28T00:11:31.017Z,5.35
2023-04-28T00:13:58.085Z,5.27
2023-04-28T00:16:24.931Z,5.18
2023-04-28T00:18:52.087Z,5.09
2023-04-28T00:21:19.115Z,5.01
2023-04-28T00:23:46.038Z,4.95
2023-04-28T00:26:12.776Z,4.89
2023-04-28T00:28:40.555Z,4.84
2023-04-28T00:31:12.591Z,4.78
2023-04-28T00:33:43.606Z,4.74
2023-04-28T00:36:11.191Z,4.70
2023-04-28T00:38:37.993Z,4.66
2023-04-28T00:41:04.849Z,4.61
2023-04-28T00:43:31.625Z,4.59
2023-04-28T00:45:58.496Z,4.55
2023-04-28T00:48:25.475Z,4.50
2023-04-28T00:50:52.339Z,4.45
2023-04-28T00:53:19.086Z,4.41
2023-04-28T00:55:45.896Z,4.39
2023-04-28T00:58:12.631Z,4.36
2023-04-28T01:00:39.491Z,4.33
2023-04-28T01:03:06.618Z,4.31
2023-04-28T01:05:34.025Z,4.27
2023-04-28T01:08:00.853Z,4.24
2023-04-28T01:10:27.588Z,4.21
2023-04-28T01:12:55.039Z,4.18
2023-04-28T01:15:21.982Z,4.14
2023-04-28T01:17:51.272Z,4.09
2023-04-28T01:20:18.264Z,4.04
2023-04-28T01:22:45.110Z,4.00
2023-04-28T01:25:11.925Z,3.97
2023-04-28T01:27:38.685Z,3.93
2023-04-28T01:30:06.909Z,3.89
2023-04-28T01:32:34.049Z,3.85
2023-04-28T01:35:03.544Z,3.83
2023-04-28T01:37:30.689Z,3.80
2023-04-28T01:39:57.526Z,3.78
2023-04-28T01:42:25.388Z,3.75
2023-04-28T01:44:53.163Z,3.75
2023-04-28T01:47:20.617Z,3.72
2023-04-28T01:49:48.391Z,3.69
2023-04-28T01:52:15.332Z,3.66
2023-04-28T01:54:42.304Z,3.64
2023-04-28T01:57:09.689Z,3.60
2023-04-28T01:59:36.904Z,3.58
2023-04-28T02:02:05.659Z,3.56
2023-04-28T02:04:33.084Z,3.53
2023-04-28T02:06:59.930Z,3.51
2023-04-28T02:09:27.273Z,3.48
2023-04-28T02:11:53.990Z,3.45
2023-04-28T02:14:21.382Z,3.42
2023-04-28T02:16:48.153Z,3.40
2023-04-28T02:19:15.679Z,3.36
2023-04-28T02:21:43.204Z,3.33
2023-04-28T02:24:10.067Z,3.30
2023-04-28T02:26:36.820Z,3.27
2023-04-28T02:29:06.625Z,3.25
2023-04-28T02:31:33.438Z,3.23
2023-04-28T02:34:00.406Z,3.22
2023-04-28T02:36:27.910Z,3.22
2023-04-28T02:38:54.743Z,3.22
2023-04-28T02:41:21.568Z,3.23
2023-04-28T02:43:48.423Z,3.25
2023-04-28T02:46:15.284Z,3.25
2023-04-28T02:48:42.497Z,3.27
2023-04-28T02:51:10.777Z,3.28
2023-04-28T02:53:38.063Z,3.31
2023-04-28T02:56:05.285Z,3.34
2023-04-28T02:58:32.986Z,3.36
2023-04-28T03:00:59.924Z,3.37
2023-04-28T03:03:26.895Z,3.38
2023-04-28T03:05:53.803Z,3.40
2023-04-28T03:08:21.154Z,3.44
2023-04-28T03:10:48.012Z,3.48
2023-04-28T03:13:15.076Z,3.52
2023-04-28T03:15:42.431Z,3.56
2023-04-28T03:18:09.438Z,3.58
2023-04-28T03:20:36.614Z,3.60
2023-04-28T03:23:03.720Z,3.69
2023-04-28T03:25:30.651Z,3.84
2023-04-28T03:27:57.600Z,4.03
2023-04-28T03:30:24.356Z,4.24
2023-04-28T03:32:51.261Z,4.42
2023-04-28T03:35:18.244Z,4.66
2023-04-28T03:37:44.999Z,4.97
2023-04-28T03:40:12.713Z,5.23
2023-04-28T03:42:55.001Z,5.45
2023-04-28T03:45:31.986Z,5.75
2023-04-28T03:47:59.125Z,6.06
2023-04-28T03:50:26.802Z,6.25
2023-04-28T03:52:54.296Z,6.27
2023-04-28T03:55:21.158Z,6.14
2023-04-28T03:57:47.989Z,5.94
2023-04-28T04:00:14.930Z,5.87
2023-04-28T04:02:46.035Z,6.15
2023-04-28T04:05:13.079Z,6.64
2023-04-28T04:07:41.030Z,7.10
2023-04-28T04:10:08.511Z,7.41
2023-04-28T04:12:36.283Z,7.50
2023-04-28T04:15:04.196Z,7.54
2023-04-28T04:17:31.744Z,7.41
2023-04-28T04:19:58.594Z,7.15
2023-04-28T04:22:27.178Z,6.85
2023-04-28T04:24:53.923Z,6.63
2023-04-28T04:27:20.884Z,6.49
2023-04-28T04:29:47.735Z,6.40
2023-04-28T04:32:15.022Z,6.32
2023-04-28T04:34:42.378Z,6.29
2023-04-28T04:37:09.658Z,6.39
2023-04-28T04:39:40.884Z,6.62
2023-04-28T04:42:23.168Z,6.93
2023-04-28T04:45:12.461Z,7.50
2023-04-28T04:47:39.683Z,7.84
2023-04-28T04:50:07.621Z,7.96
2023-04-28T04:52:34.366Z,8.00
2023-04-28T05:00:29.475Z,8.00
2023-04-28T05:02:57.150Z,7.94
2023-04-28T05:05:24.208Z,7.92
2023-04-28T05:08:12.854Z,7.90
2023-04-28T05:10:40.478Z,7.86
2023-04-28T05:13:07.615Z,7.82
2023-04-28T05:15:34.825Z,7.78
2023-04-28T05:25:29.046Z,7.69
2023-04-28T05:27:56.564Z,7.71
2023-04-28T05:30:23.580Z,7.76
2023-04-28T05:32:51.334Z,7.81
2023-04-28T05:35:18.375Z,7.85
2023-04-28T05:37:45.432Z,7.86
2023-04-28T05:40:12.757Z,7.90
2023-04-28T05:42:40.037Z,7.93
2023-04-28T05:45:07.603Z,7.93
2023-04-28T05:47:34.522Z,7.93
2023-04-28T05:50:01.377Z,7.95
2023-04-28T05:52:28.319Z,7.96
2023-04-28T05:54:55.075Z,7.98
2023-04-28T05:57:22.223Z,8.04
2023-04-28T05:59:49.089Z,8.10
2023-04-28T06:02:17.141Z,8.13
2023-04-28T06:04:44.760Z,8.15
2023-04-28T06:07:11.835Z,8.18
2023-04-28T06:09:38.806Z,8.18
2023-04-28T06:12:06.314Z,8.17
2023-04-28T06:14:33.293Z,8.17
2023-04-28T06:17:00.590Z,8.17
2023-04-28T06:19:27.471Z,8.20
2023-04-28T06:21:54.301Z,8.23
2023-04-28T06:24:21.096Z,8.26
2023-04-28T06:26:48.259Z,8.25
2023-04-28T06:29:15.072Z,8.25
2023-04-28T06:31:41.882Z,8.26
2023-04-28T06:34:08.862Z,8.29
2023-04-28T06:36:36.266Z,8.35
2023-04-28T06:39:04.418Z,8.40
2023-04-28T06:41:33.228Z,8.46
2023-04-28T06:44:01.196Z,8.51
2023-04-28T06:46:30.196Z,8.56
2023-04-28T06:48:57.503Z,8.57
2023-04-28T06:51:24.582Z,8.58
2023-04-28T06:53:53.271Z,8.60
2023-04-28T06:59:20.050Z,8.73
2023-04-28T07:01:48.058Z,8.77
2023-04-28T07:04:15.418Z,8.82
2023-04-28T07:06:42.666Z,8.89
2023-04-28T07:09:09.621Z,8.94
2023-04-28T07:11:37.167Z,8.97
2023-04-28T07:14:03.967Z,9.02
2023-04-28T07:16:30.843Z,9.12
2023-04-28T07:18:57.571Z,9.22
2023-04-28T07:21:24.332Z,9.32
2023-04-28T07:23:51.249Z,9.40
2023-04-28T07:26:18.013Z,9.49
2023-04-28T07:28:45.033Z,9.60
2023-04-28T07:31:11.852Z,9.73
2023-04-28T07:33:38.639Z,9.83
2023-04-28T07:36:06.148Z,9.90
2023-04-28T07:38:36.025Z,9.96
2023-04-28T07:41:03.734Z,9.95
2023-04-28T07:43:30.991Z,9.95
2023-04-28T07:45:58.000Z,9.98
2023-04-28T07:48:24.935Z,10.02
2023-04-28T07:50:51.716Z,10.09
2023-04-28T07:53:18.530Z,10.22
2023-04-28T07:59:01.869Z,10.57
2023-04-28T08:01:28.747Z,10.70
2023-04-28T08:03:55.833Z,10.79
2023-04-28T08:06:22.855Z,10.87
2023-04-28T08:08:49.983Z,10.95
2023-04-28T08:11:16.794Z,10.95
2023-04-28T08:13:43.537Z,10.95
2023-04-28T08:16:10.319Z,10.91
2023-04-28T08:18:37.291Z,10.89
2023-04-28T08:21:04.620Z,10.85
2023-04-28T08:23:32.195Z,10.83
2023-04-28T08:25:58.939Z,10.84
2023-04-28T08:28:26.273Z,10.91
2023-04-28T08:30:54.473Z,10.95
2023-04-28T08:33:21.502Z,10.97
2023-04-28T08:35:48.250Z,10.95
2023-04-28T08:38:17.661Z,10.84
2023-04-28T08:40:44.519Z,10.67
2023-04-28T08:43:11.700Z,10.53
2023-04-28T08:45:41.915Z,10.45
2023-04-28T08:48:20.350Z,10.39
2023-04-28T08:50:52.852Z,10.37
2023-04-28T08:53:26.072Z,10.36
2023-04-28T08:55:59.325Z,10.37
2023-04-28T08:58:27.021Z,10.40
2023-04-28T09:00:54.622Z,10.47
2023-04-28T09:03:22.157Z,10.52
2023-04-28T09:05:49.269Z,10.63
2023-04-28T09:08:16.514Z,10.80
2023-04-28T09:10:43.366Z,10.97
2023-04-28T09:13:10.720Z,11.10
2023-04-28T09:15:41.382Z,11.16
2023-04-28T09:18:08.409Z,11.21
2023-04-28T09:20:35.918Z,11.22
2023-04-28T09:23:19.078Z,11.20
2023-04-28T09:26:04.029Z,11.20
2023-04-28T09:28:32.261Z,11.26
2023-04-28T09:30:59.320Z,11.29
2023-04-28T09:33:26.439Z,11.28
2023-04-28T09:35:53.652Z,11.30
2023-04-28T09:38:21.997Z,11.33
2023-04-28T09:41:00.137Z,11.35
2023-04-28T09:43:32.302Z,11.37
2023-04-28T09:46:05.316Z,11.35
2023-04-28T09:48:39.214Z,11.34
2023-04-28T09:51:10.986Z,11.36
2023-04-28T09:53:39.724Z,11.44
2023-04-28T09:56:08.210Z,11.50
2023-04-28T09:58:35.913Z,11.58
2023-04-28T10:01:03.215Z,11.68
2023-04-28T10:03:30.895Z,11.79
2023-04-28T10:05:58.580Z,11.88
2023-04-28T10:08:27.249Z,12.00
2023-04-28T10:10:54.798Z,12.11
2023-04-28T10:13:22.203Z,12.12
2023-04-28T10:15:50.209Z,12.19
2023-04-28T10:18:17.056Z,12.39
2023-04-28T10:20:46.069Z,12.62
2023-04-28T10:23:38.360Z,12.80
2023-04-28T10:26:05.537Z,12.90
2023-04-28T10:28:32.269Z,12.97
2023-04-28T10:31:21.536Z,13.00
2023-04-28T10:33:49.650Z,12.93
2023-04-28T10:36:54.790Z,12.85
2023-04-28T10:39:21.592Z,12.87
2023-04-28T10:41:49.284Z,12.84
2023-04-28T10:44:28.796Z,12.76
2023-04-28T10:47:13.976Z,12.64
2023-04-28T10:49:57.685Z,12.51
2023-04-28T10:52:37.843Z,12.39
2023-04-28T10:55:40.378Z,12.42
2023-04-28T10:58:16.860Z,12.51
2023-04-28T11:00:45.496Z,12.61
2023-04-28T11:03:44.515Z,12.69
2023-04-28T11:06:28.777Z,12.63
2023-04-28T11:08:57.528Z,12.59
2023-04-28T11:11:28.026Z,12.65
2023-04-28T11:14:21.101Z,12.72
2023-04-28T11:16:49.509Z,12.77
2023-04-28T11:19:18.860Z,12.81
2023-04-28T11:21:45.632Z,12.90
2023-04-28T11:24:12.736Z,13.00
2023-04-28T11:26:39.534Z,13.06
2023-04-28T11:29:06.314Z,13.03
2023-04-28T11:31:33.148Z,12.97
2023-04-28T11:34:14.503Z,12.81
2023-04-28T11:36:41.624Z,12.64
2023-04-28T11:39:09.802Z,12.52
2023-04-28T11:41:37.983Z,12.42
2023-04-28T11:45:37.859Z,12.29
2023-04-28T11:48:22.174Z,12.19
2023-04-28T11:50:48.981Z,12.16
2023-04-28T11:53:16.790Z,12.17
2023-04-28T11:55:44.035Z,12.21
2023-04-28T11:58:24.090Z,12.32
2023-04-28T12:01:13.849Z,12.42
2023-04-28T12:03:47.625Z,12.52
2023-04-28T12:06:21.100Z,12.64
2023-04-28T12:08:49.004Z,12.78
2023-04-28T12:11:20.136Z,12.93
2023-04-28T12:14:03.586Z,13.03
2023-04-28T12:16:39.278Z,13.01
2023-04-28T12:19:10.061Z,12.91
2023-04-28T12:21:40.555Z,12.78
2023-04-28T12:24:20.914Z,12.65
2023-04-28T12:26:48.786Z,12.55
2023-04-28T12:29:38.317Z,12.49
2023-04-28T12:32:09.558Z,12.44
2023-04-28T12:34:36.865Z,12.37
2023-04-28T12:37:05.979Z,12.33
2023-04-28T12:39:34.898Z,12.35
2023-04-28T12:42:02.941Z,12.39
2023-04-28T12:44:36.842Z,12.42
2023-04-28T12:47:05.038Z,12.41
2023-04-28T12:49:32.171Z,12.37
2023-04-28T12:51:59.040Z,12.36
2023-04-28T12:54:25.817Z,12.33
2023-04-28T12:56:54.535Z,12.24
2023-04-28T12:59:23.344Z,12.15
2023-04-28T13:01:50.688Z,12.05
2023-04-28T13:04:18.919Z,12.00
2023-04-28T13:06:46.712Z,12.00
2023-04-28T13:09:15.278Z,11.99
2023-04-28T13:11:42.398Z,11.99
2023-04-28T13:14:09.182Z,11.97
2023-04-28T13:16:36.048Z,11.97
2023-04-28T13:19:03.887Z,11.96
2023-04-28T13:21:31.970Z,11.97
2023-04-28T13:23:58.830Z,11.99
2023-04-28T13:26:26.894Z,11.99
2023-04-28T13:28:53.706Z,11.97
2023-04-28T13:31:21.107Z,11.97
2023-04-28T13:33:47.908Z,11.99
2023-04-28T13:36:14.746Z,12.00
2023-04-28T13:38:41.586Z,11.99
2023-04-28T13:41:08.345Z,11.96
2023-04-28T13:43:35.222Z,11.94
2023-04-28T13:46:02.148Z,11.92
2023-04-28T13:48:29.330Z,11.91
2023-04-28T13:50:56.416Z,11.88
2023-04-28T13:53:23.255Z,11.85
2023-04-28T13:55:51.435Z,11.84
2023-04-28T13:58:18.197Z,11.84
2023-04-28T14:00:45.280Z,11.83
2023-04-28T14:03:12.145Z,11.80
2023-04-28T14:05:48.912Z,11.79
2023-04-28T14:08:18.823Z,11.78
2023-04-28T14:10:48.127Z,11.76
2023-04-28T14:13:15.064Z,11.74
2023-04-28T14:15:51.327Z,11.75
2023-04-28T14:18:25.169Z,11.78
2023-04-28T14:20:52.042Z,11.81
2023-04-28T14:23:18.792Z,11.84
2023-04-28T14:25:45.536Z,11.85
2023-04-28T14:28:12.391Z,11.87
2023-04-28T14:30:39.144Z,11.93
2023-04-28T14:33:06.959Z,11.99
2023-04-28T14:35:34.664Z,12.03
2023-04-28T14:38:01.425Z,12.03
2023-04-28T14:40:28.165Z,12.03
2023-04-28T14:42:55.000Z,12.02
2023-04-28T14:45:22.147Z,12.01
2023-04-28T14:47:49.801Z,12.00
2023-04-28T14:50:16.878Z,12.02
2023-04-28T14:52:44.204Z,12.04
2023-04-28T14:55:10.992Z,12.06
2023-04-28T14:57:38.379Z,12.07
2023-04-28T15:00:07.962Z,12.10
2023-04-28T15:02:34.995Z,12.11
2023-04-28T15:05:02.297Z,12.09
2023-04-28T15:07:31.735Z,12.06
2023-04-28T15:09:59.743Z,12.06
2023-04-28T15:12:26.980Z,12.09
2023-04-28T15:14:54.075Z,12.12
2023-04-28T15:17:26.076Z,12.16
2023-04-28T15:19:52.985Z,12.19
2023-04-28T15:22:19.733Z,12.21
2023-04-28T15:24:46.728Z,12.21
2023-04-28T15:27:13.936Z,12.21
2023-04-28T15:29:40.914Z,12.20
2023-04-28T15:32:07.923Z,12.19
2023-04-28T15:34:35.292Z,12.17
2023-04-28T15:37:02.430Z,12.14
2023-04-28T15:39:29.705Z,12.15
2023-04-28T15:41:56.446Z,12.17
2023-04-28T15:44:23.207Z,12.20
2023-04-28T15:46:52.536Z,12.22
2023-04-28T15:49:19.518Z,12.19
2023-04-28T15:51:46.886Z,12.11
2023-04-28T15:54:13.661Z,12.03
2023-04-28T15:56:40.616Z,11.98
2023-04-28T15:59:07.721Z,11.96
2023-04-28T16:01:34.558Z,11.96
2023-04-28T16:04:01.769Z,11.97
2023-04-28T16:06:30.310Z,11.96
2023-04-28T16:08:57.195Z,11.94
2023-04-28T16:11:24.457Z,11.92
2023-04-28T16:13:51.445Z,11.92
2023-04-28T16:16:18.346Z,11.92
2023-04-28T16:18:45.937Z,11.92
2023-04-28T16:21:16.449Z,11.88
2023-04-28T16:23:43.365Z,11.85
2023-04-28T16:26:10.145Z,11.82
2023-04-28T16:28:36.937Z,11.77
2023-04-28T16:31:03.781Z,11.71
2023-04-28T16:33:31.060Z,11.67
2023-04-28T16:35:58.028Z,11.62
2023-04-28T16:38:24.769Z,11.59
2023-04-28T16:40:52.235Z,11.57
2023-04-28T16:43:19.119Z,11.53
2023-04-28T16:45:45.899Z,11.48
2023-04-28T16:48:15.229Z,11.43
2023-04-28T16:50:42.242Z,11.38
2023-04-28T16:53:09.018Z,11.33
2023-04-28T16:55:38.968Z,11.26
2023-04-28T16:58:06.429Z,11.19
2023-04-28T17:00:33.451Z,11.11
2023-04-28T17:03:00.748Z,11.06
2023-04-28T17:05:29.364Z,11.00
2023-04-28T17:07:57.888Z,10.93
2023-04-28T17:10:26.100Z,10.84
2023-04-28T17:12:53.024Z,10.76
2023-04-28T17:15:19.838Z,10.66
2023-04-28T17:17:49.944Z,10.56
2023-04-28T17:20:20.858Z,10.44
2023-04-28T17:22:48.734Z,10.33
2023-04-28T17:25:16.078Z,10.22
2023-04-28T17:27:43.327Z,10.11
2023-04-28T17:30:11.510Z,10.01
2023-04-28T17:32:38.386Z,9.90
2023-04-28T17:35:06.151Z,9.80
2023-04-28T17:37:33.710Z,9.70
2023-04-28T17:40:01.624Z,9.59
2023-04-28T17:42:34.606Z,9.50
2023-04-28T17:45:01.618Z,9.41
2023-04-28T17:47:28.423Z,9.32
2023-04-28T17:49:55.500Z,9.23
2023-04-28T17:52:22.648Z,9.12
2023-04-28T17:54:49.683Z,9.00
2023-04-28T17:57:17.888Z,8.87
2023-04-28T17:59:46.574Z,8.77
2023-04-28T18:02:13.622Z,8.67
2023-04-28T18:04:40.651Z,8.58
2023-04-28T18:07:07.987Z,8.48
2023-04-28T18:09:34.809Z,8.38
2023-04-28T18:12:05.377Z,8.24
2023-04-28T18:14:32.217Z,8.13
2023-04-28T18:16:59.059Z,8.01
2023-04-28T18:19:27.623Z,7.91
2023-04-28T18:21:58.152Z,7.84
2023-04-28T18:24:24.974Z,7.79
2023-04-28T18:26:51.992Z,7.73
2023-04-28T18:29:20.394Z,7.67
2023-04-28T18:31:47.283Z,7.60
2023-04-28T18:34:14.238Z,7.54
2023-04-28T18:36:41.563Z,7.47
2023-04-28T18:39:09.252Z,7.40
2023-04-28T18:41:36.496Z,7.33
2023-04-28T18:44:03.452Z,7.26
2023-04-28T18:46:30.916Z,7.20
2023-04-28T18:48:58.065Z,7.15
2023-04-28T18:51:24.882Z,7.09
2023-04-28T18:53:51.589Z,7.02
2023-04-28T18:56:18.559Z,6.96
2023-04-28T18:58:47.304Z,6.92
2023-04-28T19:01:17.860Z,6.87
2023-04-28T19:03:45.006Z,6.82
2023-04-28T19:06:12.169Z,6.78
2023-04-28T19:08:39.388Z,6.74
2023-04-28T19:11:08.274Z,6.69
2023-04-28T19:13:38.219Z,6.64
2023-04-28T19:16:05.370Z,6.58
2023-04-28T19:18:32.474Z,6.50
2023-04-28T19:21:03.012Z,6.44
2023-04-28T19:23:30.606Z,6.37
2023-04-28T19:25:58.433Z,6.30
2023-04-28T19:28:26.352Z,6.24
2023-04-28T19:30:54.141Z,6.17
2023-04-28T19:33:24.885Z,6.11
2023-04-28T19:35:56.052Z,6.03
2023-04-28T19:38:23.570Z,5.97
2023-04-28T19:40:53.827Z,5.91
2023-04-28T19:43:20.821Z,5.84
2023-04-28T19:45:47.752Z,5.78
2023-04-28T19:48:14.861Z,5.74
2023-04-28T19:50:42.339Z,5.69
2023-04-28T19:53:09.475Z,5.64
2023-04-28T19:55:36.837Z,5.57
2023-04-28T19:58:04.234Z,5.51
2023-04-28T20:00:32.550Z,5.45
2023-04-28T20:03:00.312Z,5.37
2023-04-28T20:05:27.536Z,5.31
2023-04-28T20:07:56.122Z,5.25
2023-04-28T20:10:23.887Z,5.20
2023-04-28T20:12:50.956Z,5.16
2023-04-28T20:15:18.541Z,5.11
2023-04-28T20:17:46.236Z,5.06
2023-04-28T20:20:13.504Z,5.02
2023-04-28T20:22:43.328Z,4.98
2023-04-28T20:25:10.811Z,4.92
2023-04-28T20:27:37.863Z,4.87
2023-04-28T20:30:05.642Z,4.82
2023-04-28T20:32:32.686Z,4.77
2023-04-28T20:34:59.758Z,4.73
2023-04-28T20:37:26.677Z,4.69
2023-04-28T20:39:53.701Z,4.68
2023-04-28T20:42:20.561Z,4.65
2023-04-28T20:44:47.304Z,4.63
2023-04-28T20:47:14.300Z,4.60
2023-04-28T20:49:42.326Z,4.57
2023-04-28T20:52:09.342Z,4.54
2023-04-28T20:54:36.545Z,4.50
2023-04-28T20:57:05.290Z,4.46
2023-04-28T20:59:32.801Z,4.43
2023-04-28T21:02:00.489Z,4.39
2023-04-28T21:04:28.445Z,4.34
2023-04-28T21:06:55.652Z,4.29
2023-04-28T21:09:25.293Z,4.25
2023-04-28T21:11:52.689Z,4.22
2023-04-28T21:14:20.328Z,4.18
2023-04-28T21:16:47.357Z,4.11
2023-04-28T21:19:14.236Z,4.05
2023-04-28T21:21:41.128Z,4.00
2023-04-28T21:24:09.290Z,3.96
2023-04-28T21:26:37.034Z,3.92
2023-04-28T21:29:03.893Z,3.89
2023-04-28T21:31:31.348Z,3.88
2023-04-28T21:33:58.216Z,3.87
2023-04-28T21:36:25.064Z,3.85
2023-04-28T21:38:51.958Z,3.83
2023-04-28T21:41:18.740Z,3.82
2023-04-28T21:43:46.044Z,3.81
2023-04-28T21:46:13.244Z,3.79
2023-04-28T21:48:40.130Z,3.76
2023-04-28T21:51:07.065Z,3.70
2023-04-28T21:53:34.535Z,3.66
2023-04-28T21:56:02.113Z,3.62
2023-04-28T21:58:28.865Z,3.59
2023-04-28T22:00:55.624Z,3.56
2023-04-28T22:03:22.951Z,3.52
2023-04-28T22:05:49.916Z,3.50
2023-04-28T22:08:17.225Z,3.47
2023-04-28T22:10:45.625Z,3.45
2023-04-28T22:13:13.122Z,3.43
2023-04-28T22:15:40.168Z,3.39
2023-04-28T22:18:08.301Z,3.36
2023-04-28T22:20:35.972Z,3.33
2023-04-28T22:23:02.793Z,3.30
2023-04-28T22:25:29.636Z,3.24
2023-04-28T22:27:56.500Z,3.20
2023-04-28T22:30:25.813Z,3.16
2023-04-28T22:32:53.515Z,3.13
2023-04-28T22:35:20.443Z,3.09
2023-04-28T22:37:47.294Z,3.05
2023-04-28T22:40:14.137Z,3.01
2023-04-28T22:42:41.526Z,2.98
2023-04-28T22:45:10.274Z,2.95
2023-04-28T22:47:38.508Z,2.92
2023-04-28T22:50:06.760Z,2.90
2023-04-28T22:52:34.197Z,2.88
2023-04-28T22:55:01.193Z,2.86
2023-04-28T22:57:28.246Z,2.84
2023-04-28T22:59:55.483Z,2.82
2023-04-28T23:02:23.243Z,2.81
2023-04-28T23:04:50.500Z,2.80
2023-04-28T23:07:17.391Z,2.78
2023-04-28T23:09:44.142Z,2.76
2023-04-28T23:12:11.013Z,2.75
2023-04-28T23:14:38.305Z,2.75
2023-04-28T23:17:05.333Z,2.74
2023-04-28T23:19:32.250Z,2.72
2023-04-28T23:21:59.037Z,2.69
2023-04-28T23:24:27.259Z,2.66
2023-04-28T23:26:54.334Z,2.64
2023-04-28T23:29:21.141Z,2.61
2023-04-28T23:31:52.757Z,2.60
2023-04-28T23:34:19.926Z,2.57
2023-04-28T23:36:46.702Z,2.55
2023-04-28T23:39:13.672Z,2.54
2023-04-28T23:41:41.211Z,2.51
2023-04-28T23:44:08.390Z,2.48
2023-04-28T23:46:35.211Z,2.44
2023-04-28T23:49:02.293Z,2.40
2023-04-28T23:51:30.268Z,2.34
2023-04-28T23:53:57.086Z,2.30
2023-04-28T23:56:23.794Z,2.27
2023-04-28T23:58:51.190Z,2.25
